createdAt,value
2022-12-12T00:04:39.206Z,49.6
2022-12-12T00:09:39.095Z,43.8
2022-12-12T00:14:39.081Z,35.9
2022-12-12T00:19:39.334Z,63.7
2022-12-12T00:24:39.184Z,81.5
2022-12-12T00:29:39.088Z,50.6
2022-12-12T00:34:39.480Z,40.2
2022-12-12T00:39:39.095Z,37.5
2022-12-12T00:44:39.282Z,38.3
2022-12-12T00:49:39.229Z,34.4
2022-12-12T00:54:39.109Z,64.3
2022-12-12T00:59:39.191Z,47.0
2022-12-12T01:04:38.982Z,48.3
2022-12-12T01:09:38.999Z,38.0
2022-12-12T01:14:39.033Z,34.6
2022-12-12T01:19:39.150Z,35.3
2022-12-12T01:24:39.042Z,39.3
2022-12-12T01:29:38.927Z,36.8
2022-12-12T01:34:39.109Z,33.9
2022-12-12T01:39:38.934Z,37.5
2022-12-12T01:44:38.925Z,40.1
2022-12-12T01:49:38.988Z,35.7
2022-12-12T01:54:38.905Z,35.6
2022-12-12T01:59:38.930Z,35.6
2022-12-12T02:04:38.884Z,35.2
2022-12-12T02:09:39.054Z,46.7
2022-12-12T02:14:38.840Z,39.4
2022-12-12T02:19:38.871Z,40.6
2022-12-12T02:24:38.982Z,34.2
2022-12-12T02:29:38.898Z,31.7
2022-12-12T02:34:38.857Z,46.5
2022-12-12T02:39:38.974Z,34.2
2022-12-12T02:44:38.818Z,46.7
2022-12-12T02:49:38.813Z,59.4
2022-12-12T02:54:38.987Z,44.2
2022-12-12T02:59:38.785Z,36.8
2022-12-12T03:04:38.748Z,36.5
2022-12-12T03:09:39.199Z,37.4
2022-12-12T03:14:38.784Z,58.9
2022-12-12T03:19:38.742Z,66.9
2022-12-12T03:24:38.859Z,51.5
2022-12-12T03:29:38.708Z,52.1
2022-12-12T03:34:38.705Z,63.3
2022-12-12T03:39:39.403Z,88.2
2022-12-12T03:44:41.680Z,180.4
2022-12-12T03:49:38.670Z,200.8
2022-12-12T03:54:38.693Z,97.2
2022-12-12T03:59:39.417Z,87.3
2022-12-12T04:04:39.485Z,256.7
2022-12-12T04:09:38.741Z,228.5
2022-12-12T04:14:38.767Z,86.9
2022-12-12T04:19:38.893Z,72.9
2022-12-12T04:24:38.627Z,58.5
2022-12-12T04:29:39.370Z,65.4
2022-12-12T04:34:38.590Z,164.7
2022-12-12T04:39:38.606Z,90.9
2022-12-12T04:44:38.558Z,68.2
2022-12-12T04:49:38.761Z,45.6
2022-12-12T04:54:38.597Z,45.5
2022-12-12T04:59:38.543Z,43.7
2022-12-12T05:04:38.707Z,44.1
2022-12-12T05:09:38.577Z,57.6
2022-12-12T05:14:38.583Z,57.2
2022-12-12T05:19:39.261Z,70.5
2022-12-12T05:24:38.559Z,118.6
2022-12-12T05:29:38.473Z,78.4
2022-12-12T05:34:38.637Z,54.0
2022-12-12T05:39:38.467Z,49.0
2022-12-12T05:44:38.484Z,44.4
2022-12-12T05:49:38.598Z,43.1
2022-12-12T05:54:38.471Z,39.9
2022-12-12T05:59:38.454Z,51.6
2022-12-12T06:04:39.291Z,45.4
2022-12-12T06:09:38.543Z,106.9
2022-12-12T06:14:38.374Z,50.0
2022-12-12T06:19:39.221Z,90.8
2022-12-12T06:24:38.425Z,399.1
2022-12-12T06:29:38.342Z,79.7
2022-12-12T06:34:38.591Z,53.8
2022-12-12T06:39:38.377Z,51.5
2022-12-12T06:44:38.350Z,53.6
2022-12-12T06:49:38.460Z,47.1
2022-12-12T06:54:39.115Z,48.4
2022-12-12T06:59:39.095Z,110.2
2022-12-12T07:04:39.111Z,145.4
2022-12-12T07:09:39.095Z,160.3
2022-12-12T07:14:38.344Z,110.0
2022-12-12T07:19:39.059Z,76.1
2022-12-12T07:24:39.029Z,149.1
2022-12-12T07:29:38.279Z,134.0
2022-12-12T07:34:38.254Z,68.6
2022-12-12T07:39:38.418Z,55.2
2022-12-12T07:44:38.296Z,55.9
2022-12-12T07:49:39.110Z,58.9
2022-12-12T07:54:38.615Z,100.7
2022-12-12T07:59:38.201Z,64.2
2022-12-12T08:04:38.302Z,56.9
2022-12-12T08:09:38.358Z,53.1
2022-12-12T08:14:38.259Z,55.4
2022-12-12T08:19:38.245Z,56.4
2022-12-12T08:24:38.283Z,51.3
2022-12-12T08:29:38.232Z,70.9
2022-12-12T08:34:38.409Z,71.0
2022-12-12T08:39:38.188Z,57.0
2022-12-12T08:44:38.216Z,85.5
2022-12-12T08:49:38.306Z,59.5
2022-12-12T08:54:38.920Z,76.5
2022-12-12T08:59:38.121Z,108.3
2022-12-12T09:04:38.197Z,64.4
2022-12-12T09:09:38.367Z,59.7
2022-12-12T09:14:38.375Z,53.6
2022-12-12T09:19:48.962Z,67.7
2022-12-12T09:24:38.498Z,66.3
2022-12-12T09:29:39.229Z,72.3
2022-12-12T09:34:39.667Z,55.8
2022-12-12T09:39:38.119Z,73.0
2022-12-12T09:44:38.231Z,58.8
2022-12-12T09:49:43.297Z,57.8
2022-12-12T09:54:38.047Z,68.8
2022-12-12T09:59:38.009Z,62.7
2022-12-12T10:04:38.304Z,67.2
2022-12-12T10:09:38.321Z,55.9
2022-12-12T10:14:38.432Z,57.2
2022-12-12T10:19:38.158Z,51.6
2022-12-12T10:24:38.330Z,58.5
2022-12-12T10:29:41.368Z,45.4
2022-12-12T10:34:38.308Z,49.0
2022-12-12T10:39:38.152Z,54.3
2022-12-12T10:44:38.365Z,46.7
2022-12-12T10:49:37.928Z,62.3
2022-12-12T10:54:38.054Z,92.6
2022-12-12T10:59:39.185Z,96.4
2022-12-12T11:04:38.642Z,417.5
2022-12-12T11:09:37.870Z,136.5
2022-12-12T11:14:37.878Z,98.0
2022-12-12T11:19:38.743Z,94.0
2022-12-12T11:24:38.587Z,149.7
2022-12-12T11:29:37.839Z,120.5
2022-12-12T11:34:37.986Z,95.5
2022-12-12T11:39:37.901Z,67.7
2022-12-12T11:44:38.569Z,65.6
2022-12-12T11:49:38.761Z,160.0
2022-12-12T11:54:38.556Z,115.3
2022-12-12T11:59:38.516Z,414.9
2022-12-12T12:04:38.557Z,441.1
2022-12-12T12:09:37.865Z,219.2
2022-12-12T12:14:38.506Z,97.0
2022-12-12T12:19:38.836Z,167.5
2022-12-12T12:24:38.490Z,110.1
2022-12-12T12:29:37.872Z,172.1
2022-12-12T12:34:37.816Z,95.6
2022-12-12T12:39:37.836Z,63.1
2022-12-12T12:44:38.122Z,56.0
2022-12-12T12:49:37.855Z,54.7
2022-12-12T12:54:37.832Z,49.6
2022-12-12T12:59:38.100Z,70.2
2022-12-12T13:04:38.082Z,74.4
2022-12-12T13:09:37.703Z,77.1
2022-12-12T13:14:37.782Z,55.5
2022-12-12T13:19:37.985Z,60.1
2022-12-12T13:24:37.703Z,68.1
2022-12-12T13:29:38.648Z,87.7
2022-12-12T13:34:38.694Z,311.2
2022-12-12T13:39:38.650Z,443.0
2022-12-12T13:44:38.654Z,260.1
2022-12-12T13:49:38.823Z,372.4
2022-12-12T13:54:38.849Z,456.7
2022-12-12T13:59:38.411Z,291.1
2022-12-12T14:04:38.730Z,401.9
2022-12-12T14:09:47.024Z,539.6
2022-12-12T14:14:38.593Z,521.7
2022-12-12T14:19:38.889Z,354.5
2022-12-12T14:24:41.702Z,343.8
2022-12-12T14:29:38.360Z,526.5
2022-12-12T14:34:38.345Z,639.8
2022-12-12T14:44:39.272Z,1381.1
2022-12-12T14:49:38.168Z,340.6
2022-12-12T14:54:38.226Z,404.1
2022-12-12T14:59:38.199Z,318.6
2022-12-12T15:04:38.458Z,234.3
2022-12-12T15:09:38.212Z,413.0
2022-12-12T15:14:38.325Z,332.1
2022-12-12T15:19:38.268Z,247.9
2022-12-12T15:24:38.253Z,106.5
2022-12-12T15:29:38.168Z,122.2
2022-12-12T15:34:38.422Z,116.5
2022-12-12T15:39:38.112Z,117.9
2022-12-12T15:44:38.243Z,113.9
2022-12-12T15:49:38.642Z,276.7
2022-12-12T15:54:38.230Z,332.7
2022-12-12T15:59:37.310Z,130.8
2022-12-12T16:04:37.475Z,85.5
2022-12-12T16:09:37.549Z,84.8
2022-12-12T16:14:40.850Z,88.3
2022-12-12T16:19:37.386Z,88.5
2022-12-12T16:24:37.400Z,84.0
2022-12-12T16:29:37.430Z,96.2
2022-12-12T16:34:37.451Z,98.6
2022-12-12T16:39:37.244Z,99.0
2022-12-12T16:44:37.298Z,83.0
2022-12-12T16:49:37.549Z,54.6
2022-12-12T16:54:37.696Z,34.4
2022-12-12T16:59:37.359Z,30.9
2022-12-12T17:04:37.250Z,58.6
2022-12-12T17:09:37.302Z,60.4
2022-12-12T17:14:37.304Z,87.9
2022-12-12T17:19:37.546Z,63.3
2022-12-12T17:24:38.235Z,32.9
2022-12-12T17:29:38.107Z,237.0
2022-12-12T17:34:38.017Z,174.9
2022-12-12T17:39:37.991Z,297.4
2022-12-12T17:44:37.990Z,175.3
2022-12-12T17:49:37.434Z,133.5
2022-12-12T17:54:37.156Z,68.2
2022-12-12T17:59:37.224Z,57.8
2022-12-12T18:04:37.253Z,54.2
2022-12-12T18:09:38.426Z,45.6
2022-12-12T18:14:37.326Z,42.5
2022-12-12T18:19:37.192Z,43.6
2022-12-12T18:24:37.282Z,36.7
2022-12-12T18:29:37.302Z,56.6
2022-12-12T18:34:37.087Z,50.2
2022-12-12T18:39:37.079Z,77.3
2022-12-12T18:44:37.373Z,41.5
2022-12-12T18:49:37.122Z,38.8
2022-12-12T18:54:37.055Z,67.7
2022-12-12T18:59:37.251Z,35.0
2022-12-12T19:04:37.077Z,44.6
2022-12-12T19:09:37.084Z,42.0
2022-12-12T19:14:59.679Z,92.4
2022-12-12T19:19:37.049Z,39.4
2022-12-12T19:24:36.970Z,37.5
2022-12-12T19:29:36.989Z,38.9
2022-12-12T19:34:36.995Z,38.8
2022-12-12T19:39:37.146Z,46.0
2022-12-12T19:44:43.056Z,47.8
2022-12-12T19:49:37.118Z,32.1
2022-12-12T19:54:37.194Z,25.7
2022-12-12T19:59:37.146Z,47.0
2022-12-12T20:04:37.067Z,32.7
2022-12-12T20:09:37.193Z,20.8
2022-12-12T20:14:38.285Z,35.7
2022-12-12T20:19:37.808Z,203.9
2022-12-12T20:24:38.975Z,524.1
2022-12-12T20:29:37.597Z,684.1
2022-12-12T20:34:44.516Z,771.6
2022-12-12T20:39:37.613Z,734.4
2022-12-12T20:44:37.734Z,508.0
2022-12-12T20:49:37.692Z,854.6
2022-12-12T20:54:37.781Z,690.6
2022-12-12T20:59:37.666Z,501.3
2022-12-12T21:04:37.536Z,132.1
2022-12-12T21:09:36.894Z,107.3
2022-12-12T21:14:36.785Z,81.8
2022-12-12T21:19:37.680Z,74.1
2022-12-12T21:24:37.678Z,148.0
2022-12-12T21:29:39.371Z,460.1
2022-12-12T21:34:37.424Z,440.2
2022-12-12T21:39:37.987Z,386.4
2022-12-12T21:44:41.234Z,183.0
2022-12-12T21:49:36.696Z,94.2
2022-12-12T21:54:36.753Z,46.8
2022-12-12T21:59:36.847Z,42.6
2022-12-12T22:04:37.842Z,78.2
2022-12-12T22:09:37.779Z,121.6
2022-12-12T22:14:37.527Z,184.6
2022-12-12T22:19:36.695Z,209.4
2022-12-12T22:24:36.666Z,97.3
2022-12-12T22:29:36.673Z,57.6
2022-12-12T22:34:36.785Z,43.7
2022-12-12T22:39:36.656Z,77.6
2022-12-12T22:44:37.333Z,45.6
2022-12-12T22:49:37.337Z,165.4
2022-12-12T22:54:37.511Z,116.0
2022-12-12T22:59:37.620Z,130.1
2022-12-12T23:04:37.472Z,108.8
2022-12-12T23:09:36.620Z,171.6
2022-12-12T23:14:36.789Z,53.7
2022-12-12T23:19:36.770Z,68.8
2022-12-12T23:24:36.605Z,44.8
2022-12-12T23:29:36.562Z,28.0
2022-12-12T23:34:36.768Z,28.2
2022-12-12T23:39:36.562Z,49.9
2022-12-12T23:44:36.583Z,46.4
2022-12-12T23:49:36.725Z,50.1
2022-12-12T23:54:36.542Z,58.1
2022-12-12T23:59:36.508Z,81.3
